createdAt,value
2022-08-18T00:00:20.382Z,89.43
2022-08-18T00:01:16.457Z,88.62
2022-08-18T00:02:16.623Z,88.32
2022-08-18T00:03:53.130Z,88.72
2022-08-18T00:04:36.331Z,88.12
2022-08-18T00:05:18.221Z,87.92
2022-08-18T00:06:17.474Z,88.58
2022-08-18T00:07:17.823Z,87.87
2022-08-18T00:08:18.034Z,87.21
2022-08-18T00:09:18.328Z,87.41
2022-08-18T00:10:18.726Z,87.92
2022-08-18T00:11:18.909Z,88.42
2022-08-18T00:12:19.248Z,88.58
2022-08-18T00:13:19.431Z,88.28
2022-08-18T00:14:21.555Z,88.88
2022-08-18T00:15:19.987Z,88.18
2022-08-18T00:16:20.296Z,87.77
2022-08-18T00:17:20.634Z,88.23
2022-08-18T00:18:20.953Z,87.83
2022-08-18T00:19:46.866Z,87.63
2022-08-18T00:20:22.538Z,87.23
2022-08-18T00:21:21.763Z,87.83
2022-08-18T00:22:22.086Z,86.93
2022-08-18T00:23:22.376Z,86.99
2022-08-18T00:24:22.649Z,87.29
2022-08-18T00:25:22.988Z,87.29
2022-08-18T00:26:23.303Z,86.99
2022-08-18T00:27:28.112Z,87.08
2022-08-18T00:28:24.136Z,87.19
2022-08-18T00:29:24.252Z,87.39
2022-08-18T00:30:24.547Z,87.08
2022-08-18T00:31:24.836Z,87.69
2022-08-18T00:32:25.172Z,87.29
2022-08-18T00:33:25.474Z,87.59
2022-08-18T00:34:25.760Z,86.79
2022-08-18T00:35:26.059Z,85.88
2022-08-18T00:36:26.338Z,85.98
2022-08-18T00:37:26.637Z,86.79
2022-08-18T00:38:26.955Z,86.88
2022-08-18T00:39:27.310Z,87.29
2022-08-18T00:40:28.570Z,87.08
2022-08-18T00:41:27.824Z,86.88
2022-08-18T00:42:30.520Z,86.48
2022-08-18T00:43:28.407Z,86.68
2022-08-18T00:44:28.716Z,86.68
2022-08-18T00:45:32.748Z,87.19
2022-08-18T00:46:29.334Z,86.28
2022-08-18T00:47:37.086Z,86.68
2022-08-18T00:48:30.934Z,87.29
2022-08-18T00:49:30.178Z,86.79
2022-08-18T00:50:30.477Z,86.52
2022-08-18T00:51:30.766Z,86.93
2022-08-18T00:52:31.054Z,86.43
2022-08-18T02:56:41.542Z,87.85
2022-08-18T02:57:31.271Z,87.62
2022-08-18T02:58:33.565Z,88.16
2022-08-18T02:59:31.686Z,88.16
2022-08-18T03:00:31.105Z,88.46
2022-08-18T03:01:31.419Z,88.26
2022-08-18T03:02:31.643Z,87.85
2022-08-18T03:03:31.921Z,88.26
2022-08-18T03:04:32.205Z,88.26
2022-08-18T03:05:32.503Z,88.46
2022-08-18T03:06:32.811Z,87.85
2022-08-18T03:07:33.079Z,88.02
2022-08-18T03:08:33.378Z,87.01
2022-08-18T03:09:33.734Z,86.41
2022-08-18T03:10:34.390Z,85.76
2022-08-18T03:11:34.273Z,85.56
2022-08-18T03:12:34.601Z,85.31
2022-08-18T03:13:34.901Z,85.31
2022-08-18T03:14:35.225Z,84.51
2022-08-18T03:15:35.513Z,85.02
2022-08-18T03:16:35.798Z,84.21
2022-08-18T03:17:36.089Z,84.51
2022-08-18T03:18:37.452Z,84.81
2022-08-18T03:19:36.712Z,84.91
2022-08-18T03:20:36.914Z,85.42
2022-08-18T03:21:37.175Z,85.25
2022-08-18T03:22:37.421Z,86.06
2022-08-18T03:23:37.669Z,86.06
2022-08-18T03:24:38.003Z,86.91
2022-08-18T03:25:38.292Z,87.11
2022-08-18T03:26:38.590Z,87.21
2022-08-18T03:27:38.899Z,87.31
2022-08-18T03:28:39.227Z,86.91
2022-08-18T03:29:39.521Z,87.31
2022-08-18T03:30:39.830Z,87.01
2022-08-18T03:31:40.135Z,87.01
2022-08-18T03:32:40.396Z,87.21
2022-08-18T03:33:41.729Z,86.81
2022-08-18T03:34:40.989Z,87.31
2022-08-18T03:35:41.284Z,87.31
2022-08-18T03:36:41.576Z,87.71
2022-08-18T03:37:41.895Z,87.62
2022-08-18T03:38:42.198Z,88.22
2022-08-18T03:39:42.602Z,87.71
2022-08-18T03:40:42.836Z,88.22
2022-08-18T03:41:59.090Z,88.02
2022-08-18T03:42:44.463Z,87.92
2022-08-18T03:43:50.159Z,87.82
2022-08-18T03:44:45.010Z,87.31
2022-08-18T03:45:44.254Z,87.51
2022-08-18T03:46:44.565Z,87.62
2022-08-18T03:47:44.956Z,87.31
2022-08-18T03:48:45.215Z,87.01
2022-08-18T03:49:45.512Z,86.81
2022-08-18T03:50:45.816Z,87.31
2022-08-18T03:51:46.120Z,87.31
2022-08-18T03:52:46.455Z,87.41
2022-08-18T03:53:46.746Z,87.11
2022-08-18T03:54:47.081Z,87.11
2022-08-18T03:55:47.371Z,86.41
2022-08-18T03:56:47.648Z,87.11
2022-08-18T03:57:47.931Z,86.51
2022-08-18T03:58:48.246Z,86.91
2022-08-18T03:59:48.585Z,86.36
2022-08-18T04:00:48.893Z,85.86
2022-08-18T04:01:49.379Z,86.66
2022-08-18T04:02:49.511Z,85.76
2022-08-18T04:03:49.783Z,85.66
2022-08-18T04:04:51.267Z,86.26
2022-08-18T04:05:50.385Z,86.16
2022-08-18T04:06:50.675Z,86.06
2022-08-18T04:07:52.155Z,86.16
2022-08-18T04:08:51.199Z,86.16
2022-08-18T04:09:51.533Z,85.66
2022-08-18T04:10:51.843Z,85.86
2022-08-18T04:11:52.220Z,85.96
2022-08-18T04:12:52.474Z,86.16
2022-08-18T04:13:52.763Z,86.36
2022-08-18T04:14:53.062Z,86.36
2022-08-18T04:15:53.325Z,86.06
2022-08-18T04:16:53.603Z,85.56
2022-08-18T04:18:03.086Z,86.87
2022-08-18T04:18:55.218Z,86.26
2022-08-18T04:19:54.464Z,86.06
2022-08-18T04:20:59.907Z,86.57
2022-08-18T04:21:56.052Z,85.66
2022-08-18T04:22:55.314Z,85.66
2022-08-18T04:23:55.613Z,85.56
2022-08-18T04:24:55.923Z,85.72
2022-08-18T04:25:56.179Z,85.52
2022-08-18T04:26:56.525Z,85.52
2022-08-18T04:27:56.837Z,85.11
2022-08-18T04:28:57.151Z,84.61
2022-08-18T04:29:57.465Z,85.02
2022-08-18T04:30:57.717Z,84.67
2022-08-18T04:31:58.038Z,84.91
2022-08-18T04:32:58.362Z,84.88
2022-08-18T04:33:58.668Z,84.27
2022-08-18T04:34:58.957Z,84.67
2022-08-18T04:35:59.240Z,84.57
2022-08-18T04:36:59.527Z,84.88
2022-08-18T04:37:59.863Z,84.27
2022-08-18T04:39:00.056Z,84.37
2022-08-18T04:40:00.493Z,85.08
2022-08-18T04:41:00.663Z,84.37
2022-08-18T04:42:00.961Z,84.97
2022-08-18T04:43:01.260Z,84.37
2022-08-18T04:44:01.572Z,84.88
2022-08-18T04:45:01.877Z,84.97
2022-08-18T04:46:02.188Z,85.28
2022-08-18T04:47:02.515Z,85.08
2022-08-18T04:48:02.858Z,84.88
2022-08-18T04:49:03.033Z,84.97
2022-08-18T04:50:03.320Z,85.68
2022-08-18T04:51:03.588Z,85.48
2022-08-18T04:52:36.617Z,84.67
2022-08-18T04:53:05.213Z,84.77
2022-08-18T04:54:04.442Z,85.48
2022-08-18T04:55:04.769Z,85.38
2022-08-18T04:56:05.096Z,84.88
2022-08-18T04:57:05.409Z,84.27
2022-08-18T04:58:05.754Z,85.78
2022-08-18T04:59:06.067Z,84.77
2022-08-18T05:00:06.384Z,85.68
2022-08-18T05:01:06.745Z,86.28
2022-08-18T05:02:10.250Z,85.58
2022-08-18T05:03:08.321Z,85.28
2022-08-18T05:04:07.564Z,85.08
2022-08-18T05:05:07.909Z,86.08
2022-08-18T05:06:08.207Z,85.78
2022-08-18T05:07:08.507Z,84.97
2022-08-18T05:08:08.879Z,84.57
2022-08-18T05:09:09.098Z,84.97
2022-08-18T05:10:09.391Z,85.24
2022-08-18T05:11:09.690Z,85.33
2022-08-18T05:12:09.989Z,84.74
2022-08-18T05:13:10.290Z,84.53
2022-08-18T05:14:10.590Z,84.63
2022-08-18T05:15:10.919Z,84.74
2022-08-18T05:16:14.818Z,84.33
2022-08-18T05:17:12.509Z,84.83
2022-08-18T05:18:11.870Z,84.23
2022-08-18T05:19:12.124Z,85.64
2022-08-18T05:20:12.437Z,84.94
2022-08-18T05:21:12.731Z,86.04
2022-08-18T05:22:13.036Z,86.08
2022-08-18T05:23:13.270Z,85.68
2022-08-18T05:24:13.585Z,86.58
2022-08-18T05:25:13.914Z,86.28
2022-08-18T05:26:14.237Z,86.48
2022-08-18T05:27:14.548Z,85.98
2022-08-18T05:28:14.884Z,86.58
2022-08-18T05:29:18.506Z,87.49
2022-08-18T05:30:15.437Z,87.08
2022-08-18T05:31:15.678Z,86.68
2022-08-18T05:32:46.520Z,86.79
2022-08-18T05:33:17.296Z,86.48
2022-08-18T05:34:16.532Z,86.68
2022-08-18T05:35:16.805Z,86.68
2022-08-18T05:36:17.108Z,86.38
2022-08-18T05:37:17.439Z,86.68
2022-08-18T05:38:17.745Z,86.58
2022-08-18T05:39:18.046Z,86.68
2022-08-18T05:40:18.433Z,86.93
2022-08-18T05:41:18.636Z,87.53
2022-08-18T05:42:18.951Z,87.63
2022-08-18T05:43:19.258Z,87.93
2022-08-18T05:44:19.567Z,87.83
2022-08-18T05:45:19.868Z,88.98
2022-08-18T05:46:21.804Z,88.78
2022-08-18T05:47:20.528Z,89.48
2022-08-18T05:48:20.727Z,89.39
2022-08-18T05:49:21.019Z,90.13
2022-08-18T05:50:21.324Z,90.98
2022-08-18T05:51:21.626Z,91.49
2022-08-18T05:52:21.949Z,91.33
2022-08-18T05:53:22.255Z,90.88
2022-08-18T05:54:22.543Z,91.08
2022-08-18T05:55:22.818Z,92.29
2022-08-18T05:56:23.119Z,91.99
2022-08-18T05:57:23.459Z,91.24
2022-08-18T05:58:23.771Z,91.54
2022-08-18T05:59:25.029Z,91.14
2022-08-18T06:00:24.268Z,90.79
2022-08-18T06:01:24.582Z,90.89
2022-08-18T06:02:24.907Z,90.49
2022-08-18T06:03:25.305Z,90.99
2022-08-18T06:04:25.468Z,90.25
2022-08-18T06:05:25.761Z,89.84
2022-08-18T06:06:26.080Z,88.74
2022-08-18T06:07:26.379Z,89.75
2022-08-18T06:08:27.685Z,89.24
2022-08-18T06:09:26.956Z,89.14
2022-08-18T06:10:28.127Z,89.40
2022-08-18T06:11:27.549Z,89.40
2022-08-18T06:12:27.863Z,89.50
2022-08-18T06:13:28.173Z,89.30
2022-08-18T06:14:28.463Z,90.50
2022-08-18T06:15:28.788Z,89.90
2022-08-18T06:16:29.001Z,89.84
2022-08-18T06:17:29.299Z,89.79
2022-08-18T06:18:29.617Z,90.09
2022-08-18T06:19:29.925Z,90.85
2022-08-18T06:20:30.242Z,91.05
2022-08-18T06:21:30.553Z,90.85
2022-08-18T06:22:31.411Z,91.86
2022-08-18T06:23:31.246Z,90.55
2022-08-18T06:24:31.425Z,90.55
2022-08-18T06:25:31.728Z,90.55
2022-08-18T06:26:32.022Z,89.95
2022-08-18T06:27:32.254Z,90.65
2022-08-18T06:28:32.608Z,89.84
2022-08-18T06:29:32.922Z,88.94
2022-08-18T06:30:33.256Z,89.40
2022-08-18T06:31:33.459Z,89.50
2022-08-18T06:32:33.817Z,90.50
2022-08-18T06:33:34.004Z,90.00
2022-08-18T06:34:34.320Z,89.40
2022-08-18T06:35:34.624Z,90.00
2022-08-18T06:36:34.920Z,88.79
2022-08-18T06:37:35.990Z,88.70
2022-08-18T06:38:35.504Z,88.15
2022-08-18T06:39:35.850Z,90.06
2022-08-18T06:40:36.070Z,87.85
2022-08-18T06:41:41.964Z,88.95
2022-08-18T06:42:40.518Z,88.25
2022-08-18T06:43:36.914Z,86.74
2022-08-18T06:44:37.208Z,87.91
2022-08-18T06:45:40.141Z,88.11
2022-08-18T06:46:37.846Z,88.21
2022-08-18T06:47:38.031Z,87.81
2022-08-18T06:48:38.337Z,87.10
2022-08-18T06:49:38.630Z,87.91
2022-08-18T06:50:38.921Z,87.01
2022-08-18T06:51:40.930Z,88.17
2022-08-18T06:52:39.462Z,86.76
2022-08-18T06:53:39.781Z,88.57
2022-08-18T06:54:40.065Z,86.96
2022-08-18T06:55:41.354Z,88.47
2022-08-18T06:56:40.635Z,86.46
2022-08-18T06:57:40.938Z,86.56
2022-08-18T06:58:41.232Z,85.46
2022-08-18T06:59:41.546Z,87.16
2022-08-18T07:00:41.883Z,85.75
2022-08-18T07:01:42.163Z,86.36
2022-08-18T07:02:42.476Z,85.52
2022-08-18T07:03:42.775Z,86.52
2022-08-18T07:04:43.074Z,86.02
2022-08-18T07:05:43.372Z,86.32
2022-08-18T07:06:43.715Z,85.92
2022-08-18T07:07:44.005Z,85.02
2022-08-18T07:08:44.304Z,84.81
2022-08-18T07:09:44.598Z,86.58
2022-08-18T07:10:44.876Z,84.47
2022-08-18T07:11:45.216Z,85.47
2022-08-18T07:12:45.513Z,84.67
2022-08-18T07:13:45.805Z,84.67
2022-08-18T07:14:46.095Z,85.27
2022-08-18T07:15:46.403Z,84.88
2022-08-18T07:16:58.470Z,86.38
2022-08-18T07:17:47.994Z,85.17
2022-08-18T07:18:47.265Z,84.17
2022-08-18T07:19:47.447Z,83.97
2022-08-18T07:20:47.764Z,85.17
2022-08-18T07:21:48.063Z,84.27
2022-08-18T07:22:48.365Z,84.57
2022-08-18T07:24:07.726Z,84.07
2022-08-18T07:24:49.938Z,85.17
2022-08-18T07:25:49.207Z,84.77
2022-08-18T07:26:49.405Z,85.78
2022-08-18T07:27:49.728Z,83.47
2022-08-18T07:28:49.972Z,84.17
2022-08-18T07:29:50.176Z,84.77
2022-08-18T07:31:13.559Z,84.23
2022-08-18T07:31:53.600Z,84.13
2022-08-18T07:32:51.020Z,84.43
2022-08-18T07:33:51.350Z,83.93
2022-08-18T07:34:53.347Z,83.93
2022-08-18T07:35:51.795Z,84.53
2022-08-18T07:36:52.141Z,83.23
2022-08-18T07:37:52.631Z,84.74
2022-08-18T07:38:52.691Z,82.79
2022-08-18T07:39:53.013Z,82.49
2022-08-18T07:40:53.314Z,83.09
2022-08-18T07:41:53.633Z,82.29
2022-08-18T07:43:01.203Z,81.99
2022-08-18T07:43:55.106Z,81.65
2022-08-18T07:44:54.452Z,83.45
2022-08-18T07:45:54.746Z,82.75
2022-08-18T07:46:55.084Z,80.94
2022-08-18T07:47:55.398Z,82.45
2022-08-18T07:48:55.737Z,80.44
2022-08-18T07:50:18.251Z,80.35
2022-08-18T07:51:00.110Z,78.54
2022-08-18T07:51:56.621Z,80.04
2022-08-18T07:52:56.936Z,80.85
2022-08-18T07:53:57.259Z,78.54
2022-08-18T07:54:57.598Z,79.58
2022-08-18T07:55:57.887Z,79.48
2022-08-18T07:56:58.162Z,80.32
2022-08-18T07:57:58.710Z,80.79
2022-08-18T07:58:58.687Z,82.49
2022-08-18T07:59:59.031Z,81.59
2022-08-18T08:01:00.138Z,80.79
2022-08-18T08:01:59.612Z,81.09
2022-08-18T08:02:59.776Z,80.65
2022-08-18T08:04:00.064Z,79.74
2022-08-18T08:05:00.377Z,80.35
2022-08-18T08:06:00.813Z,81.55
2022-08-18T08:07:23.436Z,80.15
2022-08-18T08:08:02.307Z,80.65
2022-08-18T08:09:01.537Z,82.24
2022-08-18T08:10:01.850Z,81.24
2022-08-18T08:11:02.221Z,80.24
2022-08-18T08:12:02.416Z,78.88
2022-08-18T08:13:09.254Z,79.88
2022-08-18T08:14:04.042Z,80.79
2022-08-18T08:15:03.291Z,80.58
2022-08-18T08:16:03.580Z,80.28
2022-08-18T08:17:03.870Z,81.18
2022-08-18T08:18:04.180Z,80.65
2022-08-18T08:19:11.311Z,81.15
2022-08-18T08:20:05.798Z,77.64
2022-08-18T08:21:05.029Z,76.74
2022-08-18T08:22:07.131Z,78.34
2022-08-18T08:23:05.576Z,80.44
2022-08-18T08:24:05.867Z,79.14
2022-08-18T08:25:17.453Z,79.85
2022-08-18T08:26:07.465Z,79.64
2022-08-18T08:27:06.698Z,78.91
2022-08-18T08:28:07.022Z,79.41
2022-08-18T08:29:07.210Z,79.10
2022-08-18T08:30:07.498Z,79.36
2022-08-18T08:31:33.278Z,78.67
2022-08-18T08:32:09.128Z,78.36
2022-08-18T08:33:08.368Z,78.23
2022-08-18T08:34:08.698Z,77.23
2022-08-18T08:35:12.769Z,77.53
2022-08-18T08:36:10.309Z,78.53
2022-08-18T08:37:09.532Z,77.73
2022-08-18T08:38:39.438Z,78.39
2022-08-18T08:39:11.124Z,78.79
2022-08-18T08:40:10.517Z,78.55
2022-08-18T08:41:10.621Z,77.66
2022-08-18T08:42:30.319Z,77.15
2022-08-18T08:43:12.192Z,77.75
2022-08-18T08:44:11.431Z,76.35
2022-08-18T08:45:11.761Z,77.22
2022-08-18T08:46:12.088Z,77.02
2022-08-18T08:47:12.388Z,77.38
2022-08-18T08:48:14.566Z,75.78
2022-08-18T08:49:12.975Z,74.79
2022-08-18T08:50:13.295Z,74.38
2022-08-18T08:51:14.394Z,72.59
2022-08-18T08:52:13.880Z,74.72
2022-08-18T08:53:14.200Z,72.66
2022-08-18T08:54:16.271Z,75.02
2022-08-18T08:55:14.801Z,76.80
2022-08-18T08:56:15.119Z,77.60
2022-08-18T08:57:15.444Z,78.70
2022-08-18T08:58:15.797Z,77.64
2022-08-18T08:59:15.970Z,78.20
2022-08-18T09:00:16.279Z,76.54
2022-08-18T09:01:16.622Z,77.08
2022-08-18T09:02:37.973Z,77.28
2022-08-18T09:03:18.157Z,77.98
2022-08-18T09:04:18.401Z,78.38
2022-08-18T09:05:17.651Z,79.14
2022-08-18T09:06:17.969Z,79.50
2022-08-18T09:07:18.278Z,76.17
2022-08-18T09:08:18.573Z,76.76
2022-08-18T09:09:18.906Z,74.76
2022-08-18T09:10:19.205Z,74.46
2022-08-18T09:11:19.511Z,75.67
2022-08-18T09:12:19.823Z,76.06
2022-08-18T09:13:20.107Z,75.13
2022-08-18T09:14:20.444Z,75.43
2022-08-18T09:15:20.742Z,74.39
2022-08-18T09:16:21.041Z,74.49
2022-08-18T09:17:21.377Z,73.89
2022-08-18T09:18:23.433Z,73.49
2022-08-18T09:19:21.953Z,73.59
2022-08-18T09:20:22.255Z,71.79
2022-08-18T09:21:22.534Z,72.99
2022-08-18T09:22:22.869Z,74.36
2022-08-18T09:23:23.171Z,73.36
2022-08-18T09:24:23.469Z,75.62
2022-08-18T09:25:23.764Z,72.82
2022-08-18T09:26:24.085Z,73.79
2022-08-18T09:27:24.417Z,72.75
2022-08-18T09:28:24.736Z,72.05
2022-08-18T09:29:25.101Z,70.65
2022-08-18T09:30:25.281Z,72.52
2022-08-18T09:31:25.579Z,71.75
2022-08-18T09:32:25.912Z,71.86
2022-08-18T09:33:26.211Z,71.66
2022-08-18T09:34:26.571Z,73.28
2022-08-18T09:35:26.744Z,72.99
2022-08-18T09:36:27.015Z,73.32
2022-08-18T09:37:27.310Z,74.55
2022-08-18T09:38:27.588Z,73.96
2022-08-18T09:39:27.961Z,74.85
2022-08-18T09:40:51.307Z,72.96
2022-08-18T09:41:29.496Z,74.39
2022-08-18T09:43:29.996Z,74.73
2022-08-18T09:44:29.250Z,75.39
2022-08-18T09:45:33.054Z,75.39
2022-08-18T09:46:29.775Z,76.33
2022-08-18T09:47:30.454Z,76.67
2022-08-18T09:48:30.585Z,77.36
2022-08-18T09:49:30.633Z,76.63
2022-08-18T09:50:31.954Z,76.49
2022-08-18T09:51:31.198Z,74.22
2022-08-18T09:52:31.552Z,75.39
2022-08-18T09:53:31.769Z,74.49
2022-08-18T09:54:32.165Z,74.49
2022-08-18T09:55:32.373Z,75.46
2022-08-18T09:56:32.716Z,75.32
2022-08-18T09:57:36.845Z,74.72
2022-08-18T09:58:34.331Z,75.38
2022-08-18T10:00:34.916Z,74.05
2022-08-18T10:01:34.228Z,72.72
2022-08-18T10:02:50.775Z,72.78
2022-08-18T10:03:35.768Z,70.69
2022-08-18T10:04:35.005Z,73.25
2022-08-18T10:05:35.301Z,73.61
2022-08-18T10:06:35.606Z,74.38
2022-08-18T10:07:43.301Z,72.49
2022-08-18T10:08:37.167Z,71.78
2022-08-18T10:09:37.569Z,72.58
2022-08-18T10:11:00.374Z,71.55
2022-08-18T10:11:38.183Z,71.85
2022-08-18T10:12:37.462Z,71.02
2022-08-18T10:13:38.968Z,72.11
2022-08-18T10:14:38.029Z,70.49
2022-08-18T10:15:38.285Z,69.36
2022-08-18T10:17:13.207Z,70.79
2022-08-18T10:17:39.928Z,72.38
2022-08-18T10:18:39.613Z,70.75
2022-08-18T10:19:40.161Z,71.75
2022-08-18T10:20:42.526Z,68.76
2022-08-18T10:21:39.979Z,71.09
2022-08-18T10:22:40.241Z,71.09
2022-08-18T10:23:47.973Z,70.99
2022-08-18T10:24:41.847Z,71.89
2022-08-18T10:25:41.185Z,69.29
2022-08-18T10:26:41.390Z,71.42
2022-08-18T10:27:42.677Z,71.86
2022-08-18T10:28:41.975Z,73.35
2022-08-18T10:29:42.257Z,73.05
2022-08-18T10:30:56.581Z,73.45
2022-08-18T10:31:43.865Z,72.39
2022-08-18T10:32:52.113Z,72.69
2022-08-18T10:33:44.514Z,73.92
2022-08-18T10:34:52.031Z,73.82
2022-08-18T10:35:45.071Z,73.32
2022-08-18T10:36:44.290Z,74.96
2022-08-18T10:37:44.620Z,74.76
2022-08-18T10:38:47.848Z,75.89
2022-08-18T10:39:45.230Z,76.19
2022-08-18T10:40:45.510Z,75.73
2022-08-18T10:41:45.734Z,76.46
2022-08-18T10:42:46.071Z,76.67
2022-08-18T10:43:56.014Z,76.26
2022-08-18T10:44:47.562Z,76.97
2022-08-18T10:46:05.941Z,76.53
2022-08-18T10:46:48.112Z,75.83
2022-08-18T10:47:47.403Z,75.83
2022-08-18T10:48:47.636Z,76.29
2022-08-18T10:49:47.865Z,74.69
2022-08-18T10:50:48.143Z,74.89
2022-08-18T10:52:54.363Z,73.82
2022-08-18T10:53:50.631Z,73.49
2022-08-18T10:54:54.019Z,73.05
2022-08-18T10:55:50.794Z,71.66
2022-08-18T10:56:50.041Z,70.46
2022-08-18T10:57:50.284Z,72.05
2022-08-18T10:58:50.568Z,71.45
2022-08-18T10:59:54.628Z,71.72
2022-08-18T11:00:51.172Z,70.62
2022-08-18T11:01:51.438Z,70.32
2022-08-18T11:02:52.327Z,70.49
2022-08-18T11:03:55.860Z,70.12
2022-08-18T11:04:59.154Z,69.82
2022-08-18T11:05:53.674Z,70.16
2022-08-18T11:06:52.969Z,73.05
2022-08-18T11:08:55.373Z,69.43
2022-08-18T11:10:04.706Z,70.53
2022-08-18T11:11:27.621Z,70.62
2022-08-18T11:11:59.272Z,69.49
2022-08-18T11:12:56.532Z,69.76
2022-08-18T11:13:55.050Z,68.83
2022-08-18T11:14:55.368Z,69.43
2022-08-18T11:15:55.745Z,67.63
2022-08-18T11:16:56.039Z,67.20
2022-08-18T11:17:56.294Z,68.86
2022-08-18T11:18:56.513Z,68.66
2022-08-18T11:19:56.745Z,69.62
2022-08-18T11:20:58.867Z,69.13
2022-08-18T11:21:57.300Z,68.23
2022-08-18T11:22:57.609Z,68.56
2022-08-18T11:23:57.915Z,69.20
2022-08-18T11:24:58.267Z,70.09
2022-08-18T11:26:00.378Z,69.79
2022-08-18T11:26:58.986Z,70.89
2022-08-18T11:27:59.192Z,70.19
2022-08-18T11:28:59.502Z,70.89
2022-08-18T11:29:59.864Z,70.19
2022-08-18T11:31:00.189Z,70.19
2022-08-18T11:32:02.033Z,69.62
2022-08-18T11:33:02.624Z,70.92
2022-08-18T11:34:00.891Z,71.48
2022-08-18T11:35:01.205Z,69.49
2022-08-18T11:36:01.806Z,69.49
2022-08-18T11:37:01.828Z,69.20
2022-08-18T11:38:02.168Z,70.12
2022-08-18T11:39:02.351Z,72.12
2022-08-18T11:40:02.760Z,72.49
2022-08-18T11:41:11.093Z,70.56
2022-08-18T11:42:04.312Z,68.26
2022-08-18T11:43:03.596Z,68.16
2022-08-18T11:44:03.910Z,69.32
2022-08-18T11:45:04.220Z,67.33
2022-08-18T11:46:04.534Z,67.83
2022-08-18T11:47:04.831Z,68.86
2022-08-18T11:48:05.175Z,67.83
2022-08-18T11:49:05.382Z,66.57
2022-08-18T11:50:07.601Z,69.69
2022-08-18T11:51:05.941Z,70.89
2022-08-18T11:52:06.229Z,70.06
2022-08-18T11:53:06.541Z,68.16
2022-08-18T11:54:06.901Z,69.66
2022-08-18T11:55:16.817Z,69.16
2022-08-18T11:56:13.549Z,69.46
2022-08-18T11:57:10.188Z,68.30
2022-08-18T11:58:12.682Z,68.53
2022-08-18T11:59:08.490Z,70.42
2022-08-18T12:00:08.672Z,70.95
2022-08-18T12:01:09.972Z,69.66
2022-08-18T12:02:09.213Z,69.69
2022-08-18T12:03:09.532Z,66.41
2022-08-18T12:04:11.697Z,66.17
2022-08-18T12:05:10.574Z,65.81
2022-08-18T12:06:19.185Z,67.00
2022-08-18T12:07:11.664Z,67.50
2022-08-18T12:08:11.360Z,67.77
2022-08-18T12:09:16.404Z,66.38
2022-08-18T12:10:17.918Z,65.41
2022-08-18T12:11:26.482Z,67.96
2022-08-18T12:12:12.990Z,69.29
2022-08-18T12:13:12.345Z,70.03
2022-08-18T12:14:32.501Z,70.62
2022-08-18T12:15:17.651Z,70.72
2022-08-18T12:16:14.134Z,70.92
2022-08-18T12:17:13.379Z,70.92
2022-08-18T12:18:19.003Z,70.53
2022-08-18T12:19:15.010Z,70.76
2022-08-18T12:20:14.290Z,70.65
2022-08-18T12:21:14.595Z,70.53
2022-08-18T12:22:15.715Z,70.46
2022-08-18T12:23:15.185Z,71.39
2022-08-18T12:24:15.492Z,71.99
2022-08-18T12:25:15.801Z,72.29
2022-08-18T12:26:27.003Z,70.79
2022-08-18T12:27:21.714Z,71.09
2022-08-18T12:28:16.592Z,72.09
2022-08-18T12:29:16.911Z,72.19
2022-08-18T12:30:17.226Z,70.99
2022-08-18T12:31:17.557Z,70.99
2022-08-18T12:33:25.286Z,72.19
2022-08-18T12:34:24.917Z,70.06
2022-08-18T12:35:21.784Z,69.82
2022-08-18T12:36:19.110Z,69.43
2022-08-18T12:37:56.840Z,68.49
2022-08-18T12:38:20.547Z,67.80
2022-08-18T12:39:19.777Z,67.60
2022-08-18T12:40:20.905Z,68.40
2022-08-18T12:41:23.737Z,67.23
2022-08-18T12:42:20.742Z,69.32
2022-08-18T12:43:21.066Z,68.63
2022-08-18T12:44:21.412Z,69.13
2022-08-18T12:45:21.604Z,68.76
2022-08-18T12:46:21.917Z,69.92
2022-08-18T12:47:22.192Z,70.03
2022-08-18T12:48:22.563Z,70.03
2022-08-18T12:49:22.798Z,69.59
2022-08-18T12:50:31.202Z,68.19
2022-08-18T12:51:24.809Z,68.70
2022-08-18T12:52:24.721Z,68.60
2022-08-18T12:53:29.693Z,69.20
2022-08-18T12:54:25.453Z,69.59
2022-08-18T12:55:24.644Z,68.40
2022-08-18T12:56:25.072Z,69.29
2022-08-18T12:57:50.484Z,69.26
2022-08-18T12:58:26.603Z,68.07
2022-08-18T12:59:26.502Z,67.96
2022-08-18T13:00:28.163Z,67.07
2022-08-18T13:01:26.879Z,68.16
2022-08-18T13:02:26.668Z,67.30
2022-08-18T13:03:27.366Z,67.90
2022-08-18T13:04:27.994Z,68.73
2022-08-18T13:05:29.878Z,69.56
2022-08-18T13:06:27.762Z,70.36
2022-08-18T13:07:28.087Z,70.26
2022-08-18T13:08:30.614Z,70.65
2022-08-18T13:09:47.514Z,70.16
2022-08-18T13:10:44.977Z,70.56
2022-08-18T13:11:30.249Z,70.69
2022-08-18T13:12:29.575Z,70.39
2022-08-18T13:13:30.184Z,70.99
2022-08-18T13:14:30.102Z,70.29
2022-08-18T13:15:30.359Z,70.39
2022-08-18T13:16:53.345Z,70.89
2022-08-18T13:17:34.013Z,70.69
2022-08-18T13:18:31.193Z,70.59
2022-08-18T13:19:33.294Z,71.09
2022-08-18T13:20:31.727Z,70.99
2022-08-18T13:21:40.901Z,71.59
2022-08-18T13:22:33.623Z,71.42
2022-08-18T13:23:32.575Z,71.52
2022-08-18T13:24:32.884Z,71.62
2022-08-18T13:25:39.501Z,71.39
2022-08-18T13:26:34.470Z,71.83
2022-08-18T13:27:35.659Z,71.83
2022-08-18T13:28:36.175Z,71.62
2022-08-18T13:29:35.319Z,72.22
2022-08-18T13:30:35.724Z,71.33
2022-08-18T13:31:34.928Z,71.52
2022-08-18T13:32:40.686Z,71.42
2022-08-18T13:33:56.156Z,71.62
2022-08-18T13:34:36.845Z,71.12
2022-08-18T13:35:44.126Z,71.42
2022-08-18T13:36:37.379Z,71.72
2022-08-18T13:37:36.660Z,71.22
2022-08-18T13:38:36.984Z,71.33
2022-08-18T13:39:37.337Z,71.22
2022-08-18T13:40:38.614Z,71.72
2022-08-18T13:41:38.832Z,71.03
2022-08-18T13:42:50.785Z,72.02
2022-08-18T13:43:39.623Z,72.13
2022-08-18T13:44:38.654Z,72.02
2022-08-18T13:45:38.902Z,72.22
2022-08-18T13:46:39.166Z,72.22
2022-08-18T13:47:39.486Z,72.52
2022-08-18T13:48:41.439Z,72.72
2022-08-18T13:49:40.016Z,72.72
2022-08-18T13:50:40.323Z,72.62
2022-08-18T13:51:40.664Z,72.72
2022-08-18T13:52:44.375Z,72.62
2022-08-18T13:53:51.042Z,72.52
2022-08-18T13:54:42.501Z,72.82
2022-08-18T13:55:41.787Z,72.32
2022-08-18T13:56:42.046Z,72.62
2022-08-18T13:57:44.019Z,72.42
2022-08-18T13:58:53.244Z,72.52
2022-08-18T13:59:46.523Z,72.86
2022-08-18T14:00:43.724Z,73.46
2022-08-18T14:01:51.348Z,73.36
2022-08-18T14:02:44.774Z,73.96
2022-08-18T14:03:47.244Z,73.66
2022-08-18T14:04:44.418Z,73.66
2022-08-18T14:05:50.831Z,73.66
2022-08-18T14:06:46.903Z,74.05
2022-08-18T14:07:50.011Z,73.52
2022-08-18T14:08:45.501Z,73.56
2022-08-18T14:09:45.845Z,73.72
2022-08-18T14:10:46.155Z,74.02
2022-08-18T14:11:46.397Z,73.75
2022-08-18T14:12:47.703Z,73.66
2022-08-18T14:13:46.945Z,74.26
2022-08-18T14:14:47.227Z,73.46
2022-08-18T14:15:53.005Z,74.16
2022-08-18T14:16:48.681Z,74.26
2022-08-18T14:17:48.017Z,74.05
2022-08-18T14:18:49.016Z,73.96
2022-08-18T14:19:48.625Z,74.36
2022-08-18T14:20:48.727Z,74.05
2022-08-18T14:21:48.945Z,74.46
2022-08-18T14:22:49.212Z,74.05
2022-08-18T14:23:53.018Z,74.16
2022-08-18T14:24:49.869Z,74.46
2022-08-18T14:25:50.128Z,74.16
2022-08-18T14:26:50.772Z,74.36
2022-08-18T14:27:56.526Z,74.16
2022-08-18T14:28:52.618Z,74.16
2022-08-18T14:29:51.303Z,73.75
2022-08-18T14:30:54.855Z,74.05
2022-08-18T14:31:52.237Z,74.16
2022-08-18T14:32:52.272Z,74.46
2022-08-18T14:33:52.623Z,74.46
2022-08-18T14:35:00.184Z,74.76
2022-08-18T14:36:06.375Z,75.26
2022-08-18T14:36:54.257Z,75.35
2022-08-18T14:37:53.871Z,76.15
2022-08-18T14:38:53.859Z,77.06
2022-08-18T14:39:54.226Z,77.86
2022-08-18T14:40:54.329Z,77.36
2022-08-18T14:41:56.034Z,78.45
2022-08-18T14:42:55.530Z,77.45
2022-08-18T14:44:11.678Z,77.99
2022-08-18T14:45:17.011Z,79.49
2022-08-18T14:45:58.095Z,79.39
2022-08-18T14:46:56.002Z,79.69
2022-08-18T14:47:56.308Z,80.19
2022-08-18T14:48:56.632Z,80.79
2022-08-18T14:49:56.813Z,80.19
2022-08-18T14:50:57.130Z,80.59
2022-08-18T14:52:01.152Z,80.79
2022-08-18T14:52:57.632Z,80.79
2022-08-18T14:53:57.982Z,81.19
2022-08-18T14:54:58.275Z,81.09
2022-08-18T14:55:59.234Z,82.29
2022-08-18T14:56:58.912Z,82.49
2022-08-18T14:57:59.660Z,81.19
2022-08-18T14:58:59.504Z,81.79
2022-08-18T14:59:59.706Z,81.79
2022-08-18T15:01:00.106Z,82.29
2022-08-18T15:02:00.230Z,82.39
2022-08-18T15:03:00.510Z,82.39
2022-08-18T15:04:00.854Z,81.79